createdAt,value
2023-08-09T00:00:45.746Z,65.83
2023-08-09T00:01:49.356Z,65.65
2023-08-09T00:02:52.064Z,65.37
2023-08-09T00:03:56.064Z,65.48
2023-08-09T00:04:58.649Z,65.11
2023-08-09T00:06:02.287Z,65.07
2023-08-09T00:07:05.306Z,64.51
2023-08-09T00:08:09.254Z,64.73
2023-08-09T00:09:12.423Z,64.26
2023-08-09T00:10:16.139Z,64.24
2023-08-09T00:11:18.713Z,64.40
2023-08-09T00:12:22.399Z,64.69
2023-08-09T00:13:26.332Z,64.66
2023-08-09T00:14:29.936Z,64.30
2023-08-09T00:15:32.448Z,64.30
2023-08-09T00:16:37.534Z,64.41
2023-08-09T00:17:40.316Z,63.60
2023-08-09T00:18:44.107Z,64.12
2023-08-09T00:19:47.830Z,64.42
2023-08-09T00:20:51.750Z,63.69
2023-08-09T00:21:55.420Z,63.62
2023-08-09T00:23:00.491Z,64.00
2023-08-09T00:24:04.641Z,64.10
2023-08-09T00:25:12.398Z,64.06
2023-08-09T00:26:15.647Z,64.26
2023-08-09T00:27:22.769Z,64.27
2023-08-09T00:28:26.091Z,64.23
2023-08-09T00:29:31.074Z,64.09
2023-08-09T00:30:33.721Z,64.45
2023-08-09T00:31:39.166Z,64.13
2023-08-09T00:32:42.437Z,64.44
2023-08-09T00:33:46.889Z,64.32
2023-08-09T00:34:49.701Z,65.04
2023-08-09T00:35:53.156Z,64.96
2023-08-09T00:36:55.586Z,64.88
2023-08-09T00:37:59.522Z,64.86
2023-08-09T00:39:02.651Z,65.45
2023-08-09T00:40:08.945Z,65.52
2023-08-09T00:41:11.510Z,66.10
2023-08-09T00:42:15.308Z,65.49
2023-08-09T00:43:18.197Z,65.71
2023-08-09T00:44:22.019Z,65.48
2023-08-09T00:45:25.044Z,65.27
2023-08-09T00:46:28.793Z,65.14
2023-08-09T00:47:33.968Z,65.47
2023-08-09T00:48:38.247Z,65.60
2023-08-09T00:49:41.633Z,64.98
2023-08-09T00:50:45.518Z,65.40
2023-08-09T00:51:49.043Z,65.20
2023-08-09T00:52:52.828Z,65.28
2023-08-09T00:53:55.274Z,65.61
2023-08-09T00:54:59.859Z,65.50
2023-08-09T00:56:02.673Z,65.29
2023-08-09T00:57:07.820Z,65.35
2023-08-09T00:58:10.411Z,64.78
2023-08-09T00:59:13.929Z,65.09
2023-08-09T01:00:16.687Z,64.97
2023-08-09T01:01:20.235Z,65.26
2023-08-09T01:02:23.161Z,65.43
2023-08-09T01:03:28.548Z,64.85
2023-08-09T01:04:32.224Z,65.06
2023-08-09T01:05:42.315Z,64.76
2023-08-09T01:06:50.527Z,65.04
2023-08-09T01:08:02.792Z,65.20
2023-08-09T01:09:12.599Z,65.25
2023-08-09T01:10:18.771Z,65.39
2023-08-09T01:11:30.212Z,64.95
2023-08-09T01:12:40.549Z,64.56
2023-08-09T01:13:44.421Z,65.00
2023-08-09T01:14:54.066Z,64.89
2023-08-09T01:15:57.256Z,65.10
2023-08-09T01:17:02.873Z,65.21
2023-08-09T01:18:10.130Z,65.25
2023-08-09T01:19:31.911Z,65.31
2023-08-09T01:20:36.198Z,65.52
2023-08-09T01:21:45.876Z,65.45
2023-08-09T01:22:56.749Z,66.11
2023-08-09T01:24:02.562Z,66.31
2023-08-09T01:25:09.592Z,66.34
2023-08-09T01:26:15.005Z,66.50
2023-08-09T01:27:18.238Z,66.24
2023-08-09T01:28:22.985Z,66.28
2023-08-09T01:29:25.365Z,66.58
2023-08-09T01:30:29.375Z,66.63
2023-08-09T01:31:32.261Z,66.65
2023-08-09T01:32:36.950Z,66.74
2023-08-09T01:33:39.868Z,66.47
2023-08-09T01:34:42.616Z,66.63
2023-08-09T01:35:56.233Z,66.13
2023-08-09T01:37:04.582Z,66.60
2023-08-09T01:38:13.254Z,66.49
2023-08-09T01:39:22.740Z,66.22
2023-08-09T01:40:26.865Z,66.11
2023-08-09T01:41:31.412Z,66.53
2023-08-09T01:42:35.644Z,66.82
2023-08-09T01:43:38.765Z,66.84
2023-08-09T01:44:43.373Z,66.77
2023-08-09T01:45:45.839Z,66.15
2023-08-09T01:46:50.406Z,65.85
2023-08-09T01:47:53.763Z,66.18
2023-08-09T01:49:10.080Z,65.96
2023-08-09T01:50:20.641Z,65.92
2023-08-09T01:51:24.450Z,65.60
2023-08-09T01:52:27.397Z,65.54
2023-08-09T01:53:31.408Z,66.03
2023-08-09T01:54:36.154Z,65.80
2023-08-09T01:55:42.052Z,65.55
2023-08-09T01:56:45.275Z,65.43
2023-08-09T01:57:48.941Z,65.77
2023-08-09T01:58:51.472Z,65.57
2023-08-09T01:59:54.883Z,65.13
2023-08-09T02:00:57.376Z,65.29
2023-08-09T02:02:00.896Z,64.89
2023-08-09T02:03:03.945Z,64.79
2023-08-09T02:04:10.586Z,64.70
2023-08-09T02:05:13.375Z,64.42
2023-08-09T02:06:16.913Z,65.10
2023-08-09T02:07:19.415Z,64.71
2023-08-09T02:08:21.851Z,64.91
2023-08-09T02:09:29.024Z,64.91
2023-08-09T02:10:33.362Z,64.81
2023-08-09T02:11:37.208Z,64.70
2023-08-09T02:12:40.081Z,64.48
2023-08-09T02:13:44.780Z,64.55
2023-08-09T02:14:47.378Z,64.78
2023-08-09T02:15:51.110Z,64.48
2023-08-09T02:16:54.122Z,64.81
2023-08-09T02:17:59.698Z,64.91
2023-08-09T02:19:02.754Z,64.88
2023-08-09T02:20:08.319Z,64.43
2023-08-09T02:21:12.312Z,63.98
2023-08-09T02:22:19.822Z,64.10
2023-08-09T02:23:22.552Z,64.60
2023-08-09T02:24:26.110Z,63.76
2023-08-09T02:25:29.006Z,63.73
2023-08-09T02:26:36.144Z,63.86
2023-08-09T02:27:38.931Z,64.01
2023-08-09T02:28:42.763Z,63.84
2023-08-09T02:29:45.181Z,63.40
2023-08-09T02:30:49.384Z,63.71
2023-08-09T02:31:52.153Z,63.65
2023-08-09T02:32:55.597Z,64.01
2023-08-09T02:33:59.183Z,63.82
2023-08-09T02:35:03.533Z,64.16
2023-08-09T02:36:06.555Z,64.17
2023-08-09T02:37:10.042Z,63.99
2023-08-09T02:38:12.501Z,63.99
2023-08-09T02:39:16.282Z,64.11
2023-08-09T02:40:18.810Z,64.40
2023-08-09T02:41:22.356Z,64.38
2023-08-09T02:42:26.977Z,64.46
2023-08-09T02:43:30.239Z,64.16
2023-08-09T02:44:34.943Z,64.34
2023-08-09T02:45:38.341Z,64.79
2023-08-09T02:46:42.505Z,64.29
2023-08-09T02:47:45.091Z,64.43
2023-08-09T02:48:48.772Z,64.15
2023-08-09T02:49:51.401Z,64.62
2023-08-09T02:50:55.386Z,64.70
2023-08-09T02:51:58.282Z,64.96
2023-08-09T02:53:03.102Z,64.88
2023-08-09T02:54:07.487Z,65.17
2023-08-09T02:55:14.835Z,64.92
2023-08-09T02:56:17.438Z,65.07
2023-08-09T02:57:21.078Z,65.00
2023-08-09T02:58:24.941Z,64.41
2023-08-09T02:59:28.409Z,64.67
2023-08-09T03:00:31.394Z,65.00
2023-08-09T03:01:35.241Z,65.17
2023-08-09T03:02:37.906Z,65.32
2023-08-09T03:03:41.712Z,65.02
2023-08-09T03:04:44.299Z,64.75
2023-08-09T03:05:48.175Z,64.68
2023-08-09T03:06:50.699Z,65.94
2023-08-09T03:07:54.640Z,66.04
2023-08-09T03:08:57.241Z,66.33
2023-08-09T03:10:00.856Z,66.16
2023-08-09T03:11:04.371Z,66.42
2023-08-09T03:12:08.582Z,66.46
2023-08-09T03:13:11.120Z,66.22
2023-08-09T03:14:16.011Z,66.74
2023-08-09T03:15:18.618Z,67.13
2023-08-09T03:16:23.108Z,67.44
2023-08-09T03:17:25.786Z,67.94
2023-08-09T03:18:29.433Z,67.70
2023-08-09T03:19:32.708Z,67.77
2023-08-09T03:20:36.728Z,67.91
2023-08-09T03:21:39.478Z,67.68
2023-08-09T03:22:44.367Z,67.87
2023-08-09T03:23:47.182Z,68.25
2023-08-09T03:24:50.736Z,68.29
2023-08-09T03:25:53.877Z,68.54
2023-08-09T03:26:57.772Z,69.39
2023-08-09T03:28:00.379Z,69.10
2023-08-09T03:29:04.267Z,69.17
2023-08-09T03:30:10.251Z,68.70
2023-08-09T03:31:14.184Z,69.19
2023-08-09T03:32:16.663Z,69.15
2023-08-09T03:33:20.190Z,69.32
2023-08-09T03:34:22.755Z,69.61
2023-08-09T03:35:26.303Z,69.40
2023-08-09T03:36:28.820Z,69.25
2023-08-09T03:37:32.445Z,69.26
2023-08-09T03:38:36.510Z,69.64
2023-08-09T03:39:39.909Z,69.43
2023-08-09T03:40:42.817Z,69.50
2023-08-09T03:41:46.168Z,69.50
2023-08-09T03:42:48.718Z,69.45
2023-08-09T03:43:52.323Z,69.02
2023-08-09T03:44:55.670Z,68.24
2023-08-09T03:46:00.685Z,67.78
2023-08-09T03:47:03.541Z,67.07
2023-08-09T03:48:07.663Z,66.86
2023-08-09T03:49:12.399Z,66.96
2023-08-09T03:50:18.835Z,66.94
2023-08-09T03:51:21.234Z,67.19
2023-08-09T03:52:24.781Z,67.85
2023-08-09T03:53:27.383Z,67.70
2023-08-09T03:54:31.974Z,68.17
2023-08-09T03:55:34.526Z,68.67
2023-08-09T03:56:38.454Z,68.16
2023-08-09T03:57:41.024Z,68.55
2023-08-09T03:58:44.812Z,68.05
2023-08-09T03:59:47.298Z,67.68
2023-08-09T04:00:50.846Z,67.65
2023-08-09T04:01:54.715Z,67.49
2023-08-09T04:02:58.828Z,67.56
2023-08-09T04:04:02.351Z,68.14
2023-08-09T04:05:06.553Z,68.36
2023-08-09T04:06:10.668Z,69.14
2023-08-09T04:07:13.420Z,69.18
2023-08-09T04:08:17.032Z,69.36
2023-08-09T04:09:19.603Z,69.06
2023-08-09T04:10:23.748Z,68.64
2023-08-09T04:11:26.736Z,68.63
2023-08-09T04:12:30.442Z,68.56
2023-08-09T04:13:33.108Z,68.54
2023-08-09T04:14:37.033Z,68.46
2023-08-09T04:15:39.608Z,68.66
2023-08-09T04:16:43.549Z,68.26
2023-08-09T04:17:49.809Z,68.22
2023-08-09T04:18:53.455Z,68.58
2023-08-09T04:19:56.055Z,68.45
2023-08-09T04:20:59.689Z,68.82
2023-08-09T04:22:02.662Z,68.65
2023-08-09T04:23:06.403Z,67.96
2023-08-09T04:24:11.376Z,67.88
2023-08-09T04:25:15.280Z,67.75
2023-08-09T04:26:17.836Z,67.48
2023-08-09T04:27:22.647Z,68.35
2023-08-09T04:28:25.210Z,68.26
2023-08-09T04:29:29.014Z,68.57
2023-08-09T04:30:31.730Z,69.10
2023-08-09T04:31:35.801Z,68.43
2023-08-09T04:32:38.827Z,68.25
2023-08-09T04:33:50.845Z,68.27
2023-08-09T04:34:53.882Z,68.54
2023-08-09T04:35:57.731Z,68.33
2023-08-09T04:37:01.201Z,67.94
2023-08-09T04:38:05.880Z,68.17
2023-08-09T04:39:10.561Z,68.69
2023-08-09T04:40:14.736Z,68.54
2023-08-09T04:41:17.312Z,68.70
2023-08-09T04:42:20.745Z,68.66
2023-08-09T04:43:23.300Z,68.97
2023-08-09T04:44:28.176Z,68.83
2023-08-09T04:45:31.399Z,68.24
2023-08-09T04:46:35.542Z,68.69
2023-08-09T04:47:38.518Z,68.82
2023-08-09T04:48:44.874Z,68.64
2023-08-09T04:49:48.705Z,68.28
2023-08-09T04:50:55.102Z,68.82
2023-08-09T04:51:58.224Z,68.80
2023-08-09T04:53:02.958Z,69.08
2023-08-09T04:54:05.993Z,69.31
2023-08-09T04:55:10.358Z,69.47
2023-08-09T04:56:13.024Z,68.90
2023-08-09T04:57:15.547Z,69.21
2023-08-09T04:58:19.396Z,69.23
2023-08-09T04:59:21.859Z,69.08
2023-08-09T05:00:25.511Z,69.23
2023-08-09T05:01:28.058Z,69.32
2023-08-09T05:02:37.497Z,69.09
2023-08-09T05:03:41.306Z,69.16
2023-08-09T05:04:45.333Z,69.51
2023-08-09T05:05:48.927Z,69.62
2023-08-09T05:06:51.386Z,69.73
2023-08-09T05:07:54.994Z,70.16
2023-08-09T05:08:57.383Z,70.07
2023-08-09T05:10:00.933Z,70.15
2023-08-09T05:11:04.637Z,69.76
2023-08-09T05:12:07.913Z,70.15
2023-08-09T05:13:11.996Z,69.97
2023-08-09T05:14:14.445Z,69.94
2023-08-09T05:15:16.989Z,69.92
2023-08-09T05:16:26.029Z,69.58
2023-08-09T05:17:29.419Z,69.60
2023-08-09T05:18:32.906Z,69.88
2023-08-09T05:19:35.362Z,70.14
2023-08-09T05:20:40.450Z,69.97
2023-08-09T05:21:43.283Z,69.83
2023-08-09T05:22:47.324Z,70.50
2023-08-09T05:23:51.023Z,70.24
2023-08-09T05:24:55.591Z,70.41
2023-08-09T05:25:58.560Z,69.98
2023-08-09T05:27:03.136Z,70.38
2023-08-09T05:28:06.661Z,70.01
2023-08-09T05:29:10.282Z,70.64
2023-08-09T05:30:12.942Z,70.91
2023-08-09T05:31:16.506Z,70.95
2023-08-09T05:32:19.059Z,70.86
2023-08-09T05:33:22.501Z,70.85
2023-08-09T05:34:25.492Z,70.90
2023-08-09T05:35:29.143Z,70.74
2023-08-09T05:36:34.100Z,70.81
2023-08-09T05:37:36.643Z,71.12
2023-08-09T05:38:40.347Z,72.22
2023-08-09T05:39:44.384Z,71.77
2023-08-09T05:40:49.074Z,71.87
2023-08-09T05:41:51.676Z,71.32
2023-08-09T05:42:55.168Z,71.90
2023-08-09T05:43:57.510Z,71.62
2023-08-09T05:45:01.709Z,71.30
2023-08-09T05:46:04.711Z,71.06
2023-08-09T05:47:09.166Z,71.21
2023-08-09T05:48:13.462Z,70.84
2023-08-09T05:49:16.890Z,70.56
2023-08-09T05:50:19.676Z,70.67
2023-08-09T05:51:23.501Z,70.46
2023-08-09T05:52:27.743Z,71.07
2023-08-09T05:53:32.321Z,70.85
2023-08-09T05:54:34.689Z,71.08
2023-08-09T05:55:38.748Z,71.19
2023-08-09T05:56:41.280Z,71.67
2023-08-09T05:57:45.439Z,71.29
2023-08-09T05:58:48.014Z,71.74
2023-08-09T05:59:50.526Z,71.56
2023-08-09T06:00:54.184Z,70.64
2023-08-09T06:01:57.815Z,71.24
2023-08-09T06:03:03.195Z,71.39
2023-08-09T06:04:06.236Z,71.67
2023-08-09T06:05:11.767Z,71.66
2023-08-09T06:06:14.439Z,71.88
2023-08-09T06:07:18.564Z,71.72
2023-08-09T06:08:22.728Z,71.63
2023-08-09T06:10:46.870Z,71.77
2023-08-09T06:11:50.500Z,72.01
2023-08-09T06:12:53.394Z,72.03
2023-08-09T06:13:56.985Z,71.75
2023-08-09T06:14:59.636Z,71.66
2023-08-09T06:16:04.262Z,71.64
2023-08-09T06:17:06.754Z,71.58
2023-08-09T06:18:10.278Z,71.34
2023-08-09T06:19:13.328Z,71.68
2023-08-09T06:20:18.165Z,71.04
2023-08-09T06:21:20.783Z,71.13
2023-08-09T06:22:24.453Z,71.01
2023-08-09T06:23:28.460Z,70.38
2023-08-09T06:24:31.939Z,70.20
2023-08-09T06:25:34.995Z,69.94
2023-08-09T06:26:38.809Z,69.69
2023-08-09T06:27:41.765Z,69.77
2023-08-09T06:28:45.459Z,69.89
2023-08-09T06:29:48.018Z,70.11
2023-08-09T06:30:51.952Z,69.67
2023-08-09T06:31:54.537Z,69.31
2023-08-09T06:32:58.385Z,69.21
2023-08-09T06:34:01.185Z,68.57
2023-08-09T06:35:05.990Z,68.33
2023-08-09T06:36:08.760Z,68.66
2023-08-09T06:37:12.757Z,67.77
2023-08-09T06:38:16.249Z,67.96
2023-08-09T06:39:21.880Z,67.54
2023-08-09T06:40:24.512Z,67.80
2023-08-09T06:41:28.475Z,67.28
2023-08-09T06:42:31.012Z,67.46
2023-08-09T06:43:36.697Z,67.69
2023-08-09T06:44:39.741Z,66.67
2023-08-09T06:45:44.070Z,66.48
2023-08-09T06:46:47.180Z,66.44
2023-08-09T06:47:51.153Z,67.22
2023-08-09T06:48:54.042Z,66.74
2023-08-09T06:49:57.816Z,66.79
2023-08-09T06:51:01.915Z,66.61
2023-08-09T06:52:05.431Z,66.82
2023-08-09T06:53:09.544Z,66.78
2023-08-09T06:54:12.057Z,66.89
2023-08-09T06:55:17.311Z,66.16
2023-08-09T06:56:20.416Z,66.27
2023-08-09T06:57:24.529Z,66.85
2023-08-09T06:58:27.139Z,66.22
2023-08-09T06:59:30.831Z,66.33
2023-08-09T07:00:33.537Z,66.31
2023-08-09T07:01:37.449Z,65.81
2023-08-09T07:02:40.140Z,65.80
2023-08-09T07:03:45.128Z,65.63
2023-08-09T07:04:47.793Z,66.13
2023-08-09T07:05:51.865Z,65.69
2023-08-09T07:06:55.867Z,65.81
2023-08-09T07:08:01.975Z,65.62
2023-08-09T07:09:05.624Z,65.29
2023-08-09T07:10:10.330Z,64.07
2023-08-09T07:11:14.997Z,64.12
2023-08-09T07:12:18.674Z,64.20
2023-08-09T07:13:21.501Z,64.32
2023-08-09T07:14:25.285Z,64.42
2023-08-09T07:15:29.131Z,63.98
2023-08-09T07:16:32.822Z,63.75
2023-08-09T07:17:36.454Z,64.08
2023-08-09T07:18:40.362Z,64.26
2023-08-09T07:19:42.876Z,64.23
2023-08-09T07:20:46.767Z,64.06
2023-08-09T07:21:49.252Z,63.82
2023-08-09T07:22:54.214Z,63.14
2023-08-09T07:23:58.292Z,62.61
2023-08-09T07:25:02.615Z,62.61
2023-08-09T07:26:05.356Z,62.05
2023-08-09T07:27:10.557Z,62.30
2023-08-09T07:28:14.169Z,62.08
2023-08-09T07:29:17.667Z,61.07
2023-08-09T07:30:20.634Z,60.67
2023-08-09T07:31:26.530Z,60.50
2023-08-09T07:32:32.135Z,60.52
2023-08-09T07:33:35.978Z,60.60
2023-08-09T07:34:38.452Z,60.45
2023-08-09T07:35:42.015Z,60.87
2023-08-09T07:36:44.534Z,60.46
2023-08-09T07:37:48.989Z,60.36
2023-08-09T07:38:51.764Z,59.87
2023-08-09T07:39:55.554Z,59.70
2023-08-09T07:40:58.257Z,59.73
2023-08-09T07:42:02.001Z,59.68
2023-08-09T07:43:06.235Z,59.70
2023-08-09T07:44:10.032Z,59.58
2023-08-09T07:45:12.699Z,60.09
2023-08-09T07:46:16.368Z,60.56
2023-08-09T07:47:19.225Z,60.33
2023-08-09T07:48:22.870Z,59.85
2023-08-09T07:49:27.427Z,59.54
2023-08-09T07:50:31.198Z,59.88
2023-08-09T07:51:33.634Z,59.57
2023-08-09T07:52:37.898Z,59.96
2023-08-09T07:53:40.662Z,60.70
2023-08-09T07:54:44.923Z,61.46
2023-08-09T07:55:47.306Z,61.44
2023-08-09T07:56:50.897Z,60.41
2023-08-09T07:57:53.298Z,60.71
2023-08-09T07:58:58.091Z,61.75
2023-08-09T08:00:05.202Z,61.72
2023-08-09T08:01:09.485Z,62.27
2023-08-09T08:02:11.985Z,61.26
2023-08-09T08:03:15.587Z,62.13
2023-08-09T08:04:18.252Z,62.75
2023-08-09T08:05:22.186Z,63.10
2023-08-09T08:06:24.639Z,62.47
2023-08-09T08:07:28.130Z,62.81
2023-08-09T08:08:32.939Z,62.65
2023-08-09T08:09:36.654Z,62.46
2023-08-09T08:10:39.121Z,62.87
2023-08-09T08:11:43.653Z,62.49
2023-08-09T08:12:49.820Z,62.58
2023-08-09T08:13:53.387Z,61.91
2023-08-09T08:14:57.583Z,62.33
2023-08-09T08:16:01.418Z,62.74
2023-08-09T08:17:03.976Z,62.88
2023-08-09T08:18:08.251Z,63.99
2023-08-09T08:19:10.891Z,63.59
2023-08-09T08:20:18.405Z,63.65
2023-08-09T08:21:21.137Z,63.71
2023-08-09T08:22:23.621Z,63.46
2023-08-09T08:23:27.254Z,63.17
2023-08-09T08:24:30.008Z,63.87
2023-08-09T08:25:33.897Z,62.87
2023-08-09T08:26:36.371Z,62.89
2023-08-09T08:27:39.432Z,62.69
2023-08-09T08:28:42.909Z,62.63
2023-08-09T08:29:45.498Z,62.61
2023-08-09T08:30:50.495Z,62.46
2023-08-09T08:31:53.077Z,62.99
2023-08-09T08:32:57.117Z,63.46
2023-08-09T08:33:59.806Z,62.23
2023-08-09T08:35:03.783Z,61.85
2023-08-09T08:36:21.575Z,61.94
2023-08-09T08:37:30.260Z,61.96
2023-08-09T08:38:34.181Z,62.32
2023-08-09T08:39:38.095Z,61.90
2023-08-09T08:40:40.721Z,61.91
2023-08-09T08:41:44.405Z,62.42
2023-08-09T08:42:47.300Z,63.16
2023-08-09T08:43:51.093Z,63.30
2023-08-09T08:44:53.670Z,62.90
2023-08-09T08:46:00.889Z,63.73
2023-08-09T08:47:05.732Z,63.96
2023-08-09T08:48:10.453Z,64.12
2023-08-09T08:49:15.950Z,63.54
2023-08-09T08:50:20.939Z,64.14
2023-08-09T08:51:27.181Z,64.29
2023-08-09T08:52:32.416Z,64.00
2023-08-09T08:53:35.905Z,64.01
2023-08-09T08:54:41.668Z,63.41
2023-08-09T08:55:45.060Z,62.81
2023-08-09T08:56:50.251Z,63.99
2023-08-09T08:57:54.373Z,63.89
2023-08-09T08:58:58.041Z,64.59
2023-08-09T09:00:09.671Z,63.95
2023-08-09T09:01:20.246Z,63.27
2023-08-09T09:02:22.957Z,63.41
2023-08-09T09:03:26.618Z,62.65
2023-08-09T09:04:29.182Z,62.74
2023-08-09T09:05:33.602Z,62.34
2023-08-09T09:06:36.469Z,62.54
2023-08-09T09:07:39.831Z,61.22
2023-08-09T09:08:43.904Z,61.88
2023-08-09T09:09:58.399Z,61.60
2023-08-09T09:11:01.950Z,61.83
2023-08-09T09:12:05.568Z,62.07
2023-08-09T09:13:10.711Z,61.85
2023-08-09T09:14:14.980Z,61.63
2023-08-09T09:15:19.527Z,61.58
2023-08-09T09:16:23.946Z,60.50
2023-08-09T09:17:28.701Z,60.20
2023-08-09T09:18:31.178Z,58.95
2023-08-09T09:19:37.755Z,59.34
2023-08-09T09:20:42.783Z,59.55
2023-08-09T09:21:47.276Z,59.82
2023-08-09T09:22:49.929Z,59.60
2023-08-09T09:23:53.704Z,59.84
2023-08-09T09:25:00.253Z,59.56
2023-08-09T09:26:04.696Z,59.35
2023-08-09T09:27:08.586Z,59.29
2023-08-09T09:28:19.898Z,58.55
2023-08-09T09:29:32.333Z,58.52
2023-08-09T09:30:34.966Z,59.73
2023-08-09T09:31:42.195Z,59.63
2023-08-09T09:32:58.512Z,59.52
2023-08-09T09:34:02.590Z,60.36
2023-08-09T09:35:05.888Z,60.39
2023-08-09T09:36:13.071Z,59.00
2023-08-09T09:37:18.720Z,59.78
2023-08-09T09:38:22.728Z,59.90
2023-08-09T09:39:29.188Z,59.46
2023-08-09T09:40:37.227Z,59.59
2023-08-09T09:41:40.175Z,60.06
2023-08-09T09:42:43.956Z,60.41
2023-08-09T09:43:49.221Z,60.37
2023-08-09T09:44:52.730Z,60.44
2023-08-09T09:45:55.969Z,60.79
2023-08-09T09:47:03.888Z,60.79
2023-08-09T09:48:18.347Z,59.98
2023-08-09T09:49:22.475Z,60.77
2023-08-09T09:50:28.922Z,60.11
2023-08-09T09:51:32.593Z,60.05
2023-08-09T09:52:36.646Z,60.17
2023-08-09T09:53:41.261Z,59.71
2023-08-09T09:54:43.852Z,59.40
2023-08-09T09:55:47.767Z,59.15
2023-08-09T09:56:50.702Z,58.96
2023-08-09T09:57:54.626Z,58.48
2023-08-09T09:58:57.276Z,58.24
2023-08-09T10:00:02.138Z,58.51
2023-08-09T10:01:05.991Z,58.35
2023-08-09T10:02:12.987Z,58.49
2023-08-09T10:03:17.709Z,58.60
2023-08-09T10:04:22.471Z,59.19
2023-08-09T10:05:28.197Z,59.71
2023-08-09T10:06:33.696Z,59.19
2023-08-09T10:07:36.056Z,59.58
2023-08-09T10:08:41.011Z,59.44
2023-08-09T10:09:44.404Z,59.30
2023-08-09T10:10:52.015Z,59.07
2023-08-09T10:11:55.986Z,58.82
2023-08-09T10:12:59.472Z,59.29
2023-08-09T10:14:04.281Z,59.08
2023-08-09T10:15:10.058Z,58.75
2023-08-09T10:16:12.815Z,58.49
2023-08-09T10:17:20.556Z,59.47
2023-08-09T10:18:29.071Z,59.82
2023-08-09T10:19:33.980Z,59.87
2023-08-09T10:20:37.583Z,59.24
2023-08-09T10:21:43.449Z,59.74
2023-08-09T10:22:47.319Z,60.08
2023-08-09T10:23:58.613Z,59.90
2023-08-09T10:25:01.479Z,59.87
2023-08-09T10:26:05.224Z,59.91
2023-08-09T10:27:11.634Z,59.56
2023-08-09T10:28:16.240Z,60.11
2023-08-09T10:29:22.490Z,59.88
2023-08-09T10:30:29.752Z,60.17
2023-08-09T10:31:54.576Z,59.92
2023-08-09T10:33:00.428Z,60.07
2023-08-09T10:34:13.148Z,60.58
2023-08-09T10:35:18.845Z,60.93
2023-08-09T10:36:33.309Z,61.05
2023-08-09T10:37:36.834Z,60.99
2023-08-09T10:38:48.257Z,61.06
2023-08-09T10:40:15.401Z,60.28
2023-08-09T10:41:17.927Z,60.44
2023-08-09T10:42:21.670Z,60.20
2023-08-09T10:43:25.792Z,60.71
2023-08-09T10:44:37.093Z,60.23
2023-08-09T10:45:41.266Z,61.32
2023-08-09T10:46:44.479Z,60.82
2023-08-09T10:47:48.430Z,60.93
2023-08-09T10:48:54.581Z,60.63
2023-08-09T10:50:01.576Z,60.73
2023-08-09T10:51:20.742Z,61.02
2023-08-09T10:52:31.559Z,61.60
2023-08-09T10:53:52.657Z,61.16
2023-08-09T10:55:27.770Z,61.66
2023-08-09T10:56:34.432Z,61.89
2023-08-09T10:57:41.950Z,62.12
2023-08-09T10:58:47.142Z,62.01
2023-08-09T10:59:58.608Z,61.71
2023-08-09T11:01:02.382Z,61.79
2023-08-09T11:02:05.598Z,61.51
2023-08-09T11:03:09.634Z,60.85
2023-08-09T11:04:16.228Z,61.02
2023-08-09T11:05:19.951Z,60.32
2023-08-09T11:06:35.049Z,60.69
2023-08-09T11:07:37.617Z,61.01
2023-08-09T11:08:41.301Z,61.27
2023-08-09T11:09:45.238Z,61.46
2023-08-09T11:10:50.788Z,61.84
2023-08-09T11:11:53.355Z,61.80
2023-08-09T11:13:04.042Z,61.37
2023-08-09T11:14:09.861Z,62.66
2023-08-09T11:15:13.529Z,62.91
2023-08-09T11:16:20.656Z,62.40
2023-08-09T11:17:25.231Z,61.70
2023-08-09T11:18:29.567Z,62.43
2023-08-09T11:19:36.322Z,62.49
2023-08-09T11:20:41.268Z,62.52
2023-08-09T11:21:45.526Z,61.93
2023-08-09T11:22:55.771Z,62.22
2023-08-09T11:24:00.161Z,62.03
2023-08-09T11:25:04.498Z,61.64
2023-08-09T11:26:07.229Z,62.21
2023-08-09T11:27:14.269Z,61.73
2023-08-09T11:28:16.894Z,61.87
2023-08-09T11:29:21.718Z,61.37
2023-08-09T11:30:25.775Z,61.11
2023-08-09T11:31:29.873Z,61.08
2023-08-09T11:32:32.912Z,61.09
2023-08-09T11:33:36.533Z,60.54
2023-08-09T11:34:40.748Z,60.35
2023-08-09T11:35:46.090Z,61.30
2023-08-09T11:36:52.358Z,61.33
2023-08-09T11:37:55.003Z,62.05
2023-08-09T11:38:59.200Z,61.52
2023-08-09T11:40:03.442Z,62.33
2023-08-09T11:41:08.913Z,61.82
2023-08-09T11:42:12.004Z,61.26
2023-08-09T11:43:17.771Z,61.92
2023-08-09T11:44:23.677Z,62.63
2023-08-09T11:45:28.067Z,62.31
2023-08-09T11:46:30.617Z,62.63
2023-08-09T11:47:34.396Z,62.50
2023-08-09T11:48:40.818Z,62.28
2023-08-09T11:49:46.773Z,60.79
2023-08-09T11:51:00.321Z,61.44
2023-08-09T11:52:05.088Z,61.08
2023-08-09T11:53:08.178Z,61.49
2023-08-09T11:54:11.488Z,61.59
2023-08-09T11:55:16.674Z,62.26
2023-08-09T11:56:20.832Z,62.82
2023-08-09T11:57:24.239Z,62.71
2023-08-09T11:58:26.991Z,61.84
2023-08-09T11:59:30.883Z,61.71
2023-08-09T12:00:33.567Z,62.50
2023-08-09T12:01:40.517Z,62.60
2023-08-09T12:02:43.326Z,61.71
2023-08-09T12:03:49.012Z,61.94
2023-08-09T12:04:52.993Z,62.07
2023-08-09T12:05:57.340Z,62.46
2023-08-09T12:07:01.521Z,61.46
2023-08-09T12:08:04.702Z,61.79
2023-08-09T12:09:32.699Z,62.18
2023-08-09T12:10:41.745Z,62.19
2023-08-09T12:11:49.885Z,62.31
2023-08-09T12:12:52.485Z,62.91
2023-08-09T12:13:56.103Z,61.97
2023-08-09T12:14:58.560Z,61.29
2023-08-09T12:16:08.178Z,61.26
2023-08-09T12:17:22.684Z,61.25
2023-08-09T12:18:27.024Z,61.94
2023-08-09T12:19:29.676Z,62.11
2023-08-09T12:20:34.001Z,62.53
2023-08-09T12:21:37.488Z,62.77
2023-08-09T12:22:39.974Z,63.59
2023-08-09T12:23:43.369Z,64.47
2023-08-09T12:24:45.794Z,63.78
2023-08-09T12:25:49.905Z,63.98
2023-08-09T12:26:52.491Z,64.28
2023-08-09T12:27:56.183Z,64.07
2023-08-09T12:28:58.644Z,64.46
2023-08-09T12:30:02.731Z,64.03
2023-08-09T12:31:06.516Z,63.03
2023-08-09T12:32:11.212Z,63.43
2023-08-09T12:33:13.630Z,63.75
2023-08-09T12:34:17.505Z,63.72
2023-08-09T12:35:20.486Z,63.42
2023-08-09T12:36:26.540Z,63.78
2023-08-09T12:37:29.417Z,64.01
2023-08-09T12:38:33.021Z,63.72
2023-08-09T12:39:36.038Z,63.33
2023-08-09T12:40:39.955Z,63.88
2023-08-09T12:41:44.150Z,64.06
2023-08-09T12:42:46.967Z,64.57
2023-08-09T12:43:50.674Z,63.95
2023-08-09T12:44:53.346Z,63.73
2023-08-09T12:45:57.042Z,64.00
2023-08-09T12:46:59.641Z,63.66
2023-08-09T12:48:03.668Z,63.01
2023-08-09T12:49:06.459Z,62.94
2023-08-09T12:50:11.527Z,62.61
2023-08-09T12:51:14.499Z,63.33
2023-08-09T12:52:19.890Z,63.11
2023-08-09T12:53:22.624Z,63.67
2023-08-09T12:54:28.124Z,63.67
2023-08-09T12:55:30.682Z,63.40
2023-08-09T12:56:34.398Z,63.59
2023-08-09T12:57:36.957Z,64.14
2023-08-09T12:58:40.940Z,63.76
2023-08-09T12:59:44.358Z,62.83
2023-08-09T13:00:48.072Z,63.86
2023-08-09T13:01:51.454Z,63.67
2023-08-09T13:02:55.594Z,63.54
2023-08-09T13:03:58.252Z,63.46
2023-08-09T13:05:04.101Z,63.86
2023-08-09T13:06:06.652Z,64.20
2023-08-09T13:07:10.516Z,64.16
2023-08-09T13:08:15.078Z,64.36
2023-08-09T13:09:19.309Z,64.08
2023-08-09T13:10:22.594Z,63.70
2023-08-09T13:11:26.045Z,64.20
2023-08-09T13:12:28.533Z,64.11
2023-08-09T13:13:32.088Z,64.16
2023-08-09T13:14:35.089Z,63.67
2023-08-09T13:15:38.991Z,63.30
2023-08-09T13:16:41.491Z,63.29
2023-08-09T13:17:44.984Z,62.92
2023-08-09T13:18:47.731Z,62.63
2023-08-09T13:19:51.628Z,63.86
2023-08-09T13:20:54.949Z,64.02
2023-08-09T13:21:58.517Z,63.88
2023-08-09T13:23:01.055Z,64.05
2023-08-09T13:24:08.025Z,63.08
2023-08-09T13:25:11.511Z,62.21
2023-08-09T13:26:15.286Z,63.14
2023-08-09T13:27:17.831Z,64.35
2023-08-09T13:28:20.360Z,64.18
2023-08-09T13:29:23.853Z,63.11
2023-08-09T13:30:26.432Z,63.51
2023-08-09T13:31:30.386Z,63.01
2023-08-09T13:32:35.954Z,63.53
2023-08-09T13:33:39.896Z,64.60
2023-08-09T13:34:42.770Z,63.62
2023-08-09T13:35:47.566Z,63.80
2023-08-09T13:36:50.265Z,63.35
2023-08-09T13:37:54.522Z,64.62
2023-08-09T13:38:57.309Z,64.51
2023-08-09T13:40:02.998Z,64.80
2023-08-09T13:41:05.554Z,64.21
2023-08-09T13:42:09.494Z,64.12
2023-08-09T13:43:13.081Z,63.90
2023-08-09T13:44:16.882Z,63.97
2023-08-09T13:45:19.350Z,64.34
2023-08-09T13:46:22.845Z,63.54
2023-08-09T13:47:25.393Z,64.11
2023-08-09T13:48:29.082Z,64.64
2023-08-09T13:49:31.568Z,64.75
2023-08-09T13:50:35.685Z,65.29
2023-08-09T13:51:38.214Z,65.11